sensor_id;sensor_type;location;lat;lon;timestamp;pressure;altitude;pressure_sealevel;temperature;humidity
10706;BME280;5404;42.656;23.336;2023-05-07T00:00:16;95141.06;;;10.61;100.00
10706;BME280;5404;42.656;23.336;2023-05-07T00:02:44;95153.34;;;10.57;100.00
10706;BME280;5404;42.656;23.336;2023-05-07T00:05:10;95157.59;;;10.58;100.00
10706;BME280;5404;42.656;23.336;2023-05-07T00:07:36;95153.63;;;10.55;100.00
10706;BME280;5404;42.656;23.336;2023-05-07T00:10:03;95154.41;;;10.56;100.00
10706;BME280;5404;42.656;23.336;2023-05-07T00:12:29;95155.56;;;10.50;100.00
10706;BME280;5404;42.656;23.336;2023-05-07T00:15:02;95167.31;;;10.49;100.00
10706;BME280;5404;42.656;23.336;2023-05-07T00:17:28;95160.88;;;10.50;100.00
10706;BME280;5404;42.656;23.336;2023-05-07T00:19:53;95155.56;;;10.50;100.00
10706;BME280;5404;42.656;23.336;2023-05-07T00:22:18;95159.03;;;10.50;100.00
10706;BME280;5404;42.656;23.336;2023-05-07T00:24:47;95154.75;;;10.49;100.00
10706;BME280;5404;42.656;23.336;2023-05-07T00:27:13;95148.97;;;10.42;100.00
10706;BME280;5404;42.656;23.336;2023-05-07T00:29:38;95140.22;;;10.42;100.00
10706;BME280;5404;42.656;23.336;2023-05-07T00:32:04;95144.75;;;10.41;100.00
10706;BME280;5404;42.656;23.336;2023-05-07T00:34:30;95151.13;;;10.40;100.00
10706;BME280;5404;42.656;23.336;2023-05-07T00:36:55;95150.34;;;10.40;100.00
10706;BME280;5404;42.656;23.336;2023-05-07T00:39:21;95157.25;;;10.41;100.00
10706;BME280;5404;42.656;23.336;2023-05-07T00:41:46;95161.75;;;10.45;100.00
10706;BME280;5404;42.656;23.336;2023-05-07T00:44:12;95163.38;;;10.41;100.00
10706;BME280;5404;42.656;23.336;2023-05-07T00:46:38;95168.25;;;10.34;100.00
10706;BME280;5404;42.656;23.336;2023-05-07T00:49:04;95164.03;;;10.33;100.00
10706;BME280;5404;42.656;23.336;2023-05-07T00:51:30;95174.94;;;10.32;100.00
10706;BME280;5404;42.656;23.336;2023-05-07T00:53:56;95168.59;;;10.28;100.00
10706;BME280;5404;42.656;23.336;2023-05-07T00:56:25;95165.47;;;10.21;100.00
10706;BME280;5404;42.656;23.336;2023-05-07T00:58:50;95153.88;;;10.07;100.00
10706;BME280;5404;42.656;23.336;2023-05-07T01:01:16;95168.25;;;10.11;100.00
10706;BME280;5404;42.656;23.336;2023-05-07T01:03:42;95167.47;;;10.05;100.00
10706;BME280;5404;42.656;23.336;2023-05-07T01:06:08;95177.38;;;10.00;100.00
10706;BME280;5404;42.656;23.336;2023-05-07T01:08:36;95167.06;;;9.93;100.00
10706;BME280;5404;42.656;23.336;2023-05-07T01:11:04;95139.28;;;9.76;100.00
10706;BME280;5404;42.656;23.336;2023-05-07T01:13:29;95167.13;;;9.88;100.00
10706;BME280;5404;42.656;23.336;2023-05-07T01:15:56;95154.50;;;9.70;100.00
10706;BME280;5404;42.656;23.336;2023-05-07T01:18:22;95172.25;;;9.80;100.00
10706;BME280;5404;42.656;23.336;2023-05-07T01:20:48;95174.91;;;9.80;100.00
10706;BME280;5404;42.656;23.336;2023-05-07T01:23:14;95172.25;;;9.80;100.00
10706;BME280;5404;42.656;23.336;2023-05-07T01:25:40;95167.50;;;9.77;100.00
10706;BME280;5404;42.656;23.336;2023-05-07T01:28:06;95162.91;;;9.82;100.00
10706;BME280;5404;42.656;23.336;2023-05-07T01:30:34;95165.22;;;9.94;100.00
10706;BME280;5404;42.656;23.336;2023-05-07T01:33:04;95158.97;;;10.03;100.00
10706;BME280;5404;42.656;23.336;2023-05-07T01:35:36;95161.03;;;10.11;100.00
10706;BME280;5404;42.656;23.336;2023-05-07T01:38:06;95153.28;;;10.15;100.00
10706;BME280;5404;42.656;23.336;2023-05-07T01:40:33;95152.97;;;10.21;100.00
10706;BME280;5404;42.656;23.336;2023-05-07T01:43:00;95139.88;;;10.25;100.00
10706;BME280;5404;42.656;23.336;2023-05-07T01:45:25;95131.03;;;10.29;100.00
10706;BME280;5404;42.656;23.336;2023-05-07T01:47:52;95123.03;;;10.29;100.00
10706;BME280;5404;42.656;23.336;2023-05-07T01:50:19;95123.56;;;10.31;100.00
10706;BME280;5404;42.656;23.336;2023-05-07T01:52:46;95109.94;;;10.33;100.00
10706;BME280;5404;42.656;23.336;2023-05-07T01:55:13;95116.50;;;10.40;100.00
10706;BME280;5404;42.656;23.336;2023-05-07T01:57:38;95109.81;;;10.43;100.00
10706;BME280;5404;42.656;23.336;2023-05-07T02:00:04;95119.72;;;10.61;100.00
10706;BME280;5404;42.656;23.336;2023-05-07T02:02:30;95112.66;;;10.70;100.00
10706;BME280;5404;42.656;23.336;2023-05-07T02:04:56;95121.03;;;10.82;100.00
10706;BME280;5404;42.656;23.336;2023-05-07T02:07:22;95110.44;;;10.96;100.00
10706;BME280;5404;42.656;23.336;2023-05-07T02:09:48;95109.59;;;11.00;100.00
10706;BME280;5404;42.656;23.336;2023-05-07T02:12:13;95095.75;;;10.98;100.00
10706;BME280;5404;42.656;23.336;2023-05-07T02:14:39;95094.78;;;11.08;100.00
10706;BME280;5404;42.656;23.336;2023-05-07T02:17:04;95092.03;;;11.13;100.00
10706;BME280;5404;42.656;23.336;2023-05-07T02:19:30;95092.56;;;11.15;100.00
10706;BME280;5404;42.656;23.336;2023-05-07T02:21:55;95088.81;;;11.16;100.00
10706;BME280;5404;42.656;23.336;2023-05-07T02:24:20;95098.09;;;11.18;100.00
10706;BME280;5404;42.656;23.336;2023-05-07T02:26:47;95083.69;;;11.19;100.00
10706;BME280;5404;42.656;23.336;2023-05-07T02:29:12;95086.84;;;11.21;100.00
10706;BME280;5404;42.656;23.336;2023-05-07T02:31:38;95081.81;;;11.20;100.00
10706;BME280;5404;42.656;23.336;2023-05-07T02:34:03;95084.25;;;11.16;100.00
10706;BME280;5404;42.656;23.336;2023-05-07T02:36:29;95074.34;;;11.03;100.00
10706;BME280;5404;42.656;23.336;2023-05-07T02:38:56;95090.75;;;11.10;100.00
10706;BME280;5404;42.656;23.336;2023-05-07T02:41:22;95094.78;;;11.08;100.00
10706;BME280;5404;42.656;23.336;2023-05-07T02:43:48;95085.81;;;11.04;100.00
10706;BME280;5404;42.656;23.336;2023-05-07T02:46:14;95081.41;;;10.94;100.00
10706;BME280;5404;42.656;23.336;2023-05-07T02:48:40;95061.31;;;10.83;100.00
10706;BME280;5404;42.656;23.336;2023-05-07T02:51:07;95101.59;;;11.00;100.00
10706;BME280;5404;42.656;23.336;2023-05-07T02:53:32;95107.22;;;10.99;100.00
10706;BME280;5404;42.656;23.336;2023-05-07T02:56:00;95104.13;;;10.92;100.00
10706;BME280;5404;42.656;23.336;2023-05-07T02:58:26;95099.16;;;10.85;100.00
10706;BME280;5404;42.656;23.336;2023-05-07T03:00:52;95105.91;;;10.78;100.00
10706;BME280;5404;42.656;23.336;2023-05-07T03:03:19;95112.09;;;10.73;100.00
10706;BME280;5404;42.656;23.336;2023-05-07T03:05:45;95106.59;;;10.65;100.00
10706;BME280;5404;42.656;23.336;2023-05-07T03:08:10;95106.03;;;10.49;100.00
10706;BME280;5404;42.656;23.336;2023-05-07T03:10:37;95118.63;;;10.43;100.00
10706;BME280;5404;42.656;23.336;2023-05-07T03:13:02;95124.38;;;10.27;100.00
10706;BME280;5404;42.656;23.336;2023-05-07T03:15:28;95125.25;;;10.22;100.00
10706;BME280;5404;42.656;23.336;2023-05-07T03:17:54;95130.06;;;10.20;100.00
10706;BME280;5404;42.656;23.336;2023-05-07T03:20:20;95132.78;;;10.15;100.00
10706;BME280;5404;42.656;23.336;2023-05-07T03:22:46;95129.69;;;10.03;100.00
10706;BME280;5404;42.656;23.336;2023-05-07T03:25:12;95147.47;;;10.08;100.00
10706;BME280;5404;42.656;23.336;2023-05-07T03:27:37;95138.19;;;10.05;100.00
10706;BME280;5404;42.656;23.336;2023-05-07T03:30:03;95135.81;;;10.04;100.00
10706;BME280;5404;42.656;23.336;2023-05-07T03:32:29;95135.59;;;10.00;100.00
10706;BME280;5404;42.656;23.336;2023-05-07T03:34:55;95116.13;;;9.76;100.00
10706;BME280;5404;42.656;23.336;2023-05-07T03:37:21;95128.31;;;9.82;100.00
10706;BME280;5404;42.656;23.336;2023-05-07T03:39:47;95142.94;;;9.85;100.00
10706;BME280;5404;42.656;23.336;2023-05-07T03:42:12;95144.28;;;9.82;100.00
10706;BME280;5404;42.656;23.336;2023-05-07T03:44:37;95156.09;;;9.71;100.00
10706;BME280;5404;42.656;23.336;2023-05-07T03:47:03;95155.09;;;9.62;100.00
10706;BME280;5404;42.656;23.336;2023-05-07T03:49:29;95160.38;;;9.67;100.00
10706;BME280;5404;42.656;23.336;2023-05-07T03:51:56;95161.38;;;9.76;100.00
10706;BME280;5404;42.656;23.336;2023-05-07T03:54:22;95158.47;;;9.73;100.00
10706;BME280;5404;42.656;23.336;2023-05-07T03:56:49;95156.28;;;9.80;100.00
10706;BME280;5404;42.656;23.336;2023-05-07T03:59:14;95167.91;;;9.89;100.00
10706;BME280;5404;42.656;23.336;2023-05-07T04:01:40;95165.69;;;9.96;100.00
10706;BME280;5404;42.656;23.336;2023-05-07T04:04:06;95173.59;;;10.11;100.00
10706;BME280;5404;42.656;23.336;2023-05-07T04:06:31;95182.53;;;10.20;100.00
10706;BME280;5404;42.656;23.336;2023-05-07T04:08:57;95174.72;;;10.28;100.00
10706;BME280;5404;42.656;23.336;2023-05-07T04:11:22;95186.03;;;10.39;100.00
10706;BME280;5404;42.656;23.336;2023-05-07T04:13:48;95181.16;;;10.46;100.00
10706;BME280;5404;42.656;23.336;2023-05-07T04:16:13;95182.38;;;10.58;100.00
10706;BME280;5404;42.656;23.336;2023-05-07T04:18:39;95187.25;;;10.51;100.00
10706;BME280;5404;42.656;23.336;2023-05-07T04:21:05;95190.66;;;10.57;100.00
10706;BME280;5404;42.656;23.336;2023-05-07T04:23:30;95188.44;;;10.64;100.00
10706;BME280;5404;42.656;23.336;2023-05-07T04:25:56;95193.41;;;10.71;100.00
10706;BME280;5404;42.656;23.336;2023-05-07T04:28:22;95162.63;;;10.59;100.00
10706;BME280;5404;42.656;23.336;2023-05-07T04:30:48;95201.44;;;10.89;100.00
10706;BME280;5404;42.656;23.336;2023-05-07T04:33:14;95188.31;;;10.93;100.00
10706;BME280;5404;42.656;23.336;2023-05-07T04:35:42;95192.69;;;11.07;100.00
10706;BME280;5404;42.656;23.336;2023-05-07T04:38:08;95185.75;;;11.06;100.00
10706;BME280;5404;42.656;23.336;2023-05-07T04:40:37;95193.81;;;11.20;100.00
10706;BME280;5404;42.656;23.336;2023-05-07T04:43:05;95196.91;;;11.27;100.00
10706;BME280;5404;42.656;23.336;2023-05-07T04:45:31;95199.44;;;11.37;100.00
10706;BME280;5404;42.656;23.336;2023-05-07T04:47:56;95201.97;;;11.47;100.00
10706;BME280;5404;42.656;23.336;2023-05-07T04:50:21;95190.25;;;11.61;100.00
10706;BME280;5404;42.656;23.336;2023-05-07T04:52:50;95188.34;;;11.67;100.00
10706;BME280;5404;42.656;23.336;2023-05-07T04:55:16;95192.72;;;11.77;100.00
10706;BME280;5404;42.656;23.336;2023-05-07T04:57:41;95189.91;;;11.87;100.00
10706;BME280;5404;42.656;23.336;2023-05-07T05:00:08;95186.66;;;11.90;100.00
10706;BME280;5404;42.656;23.336;2023-05-07T05:02:34;95184.75;;;11.90;100.00
10706;BME280;5404;42.656;23.336;2023-05-07T05:05:00;95181.94;;;11.82;100.00
10706;BME280;5404;42.656;23.336;2023-05-07T05:07:27;95182.00;;;11.95;100.00
10706;BME280;5404;42.656;23.336;2023-05-07T05:09:54;95182.16;;;11.85;100.00
10706;BME280;5404;42.656;23.336;2023-05-07T05:12:20;95178.25;;;11.96;100.00
10706;BME280;5404;42.656;23.336;2023-05-07T05:14:46;95175.09;;;12.08;100.00
10706;BME280;5404;42.656;23.336;2023-05-07T05:17:12;95174.91;;;12.18;100.00
10706;BME280;5404;42.656;23.336;2023-05-07T05:19:37;95177.31;;;12.33;100.00
10706;BME280;5404;42.656;23.336;2023-05-07T05:22:03;95173.66;;;12.42;100.00
10706;BME280;5404;42.656;23.336;2023-05-07T05:24:29;95165.03;;;12.59;100.00
10706;BME280;5404;42.656;23.336;2023-05-07T05:26:57;95170.22;;;12.69;100.00
10706;BME280;5404;42.656;23.336;2023-05-07T05:29:23;95166.72;;;12.82;100.00
10706;BME280;5404;42.656;23.336;2023-05-07T05:31:49;95169.69;;;12.94;100.00
10706;BME280;5404;42.656;23.336;2023-05-07T05:34:14;95131.16;;;12.81;100.00
10706;BME280;5404;42.656;23.336;2023-05-07T05:36:40;95151.16;;;12.98;100.00
10706;BME280;5404;42.656;23.336;2023-05-07T05:39:05;95133.44;;;12.88;100.00
10706;BME280;5404;42.656;23.336;2023-05-07T05:41:33;95159.84;;;13.17;100.00
10706;BME280;5404;42.656;23.336;2023-05-07T05:43:59;95168.34;;;13.32;100.00
10706;BME280;5404;42.656;23.336;2023-05-07T05:46:24;95158.97;;;13.43;100.00
10706;BME280;5404;42.656;23.336;2023-05-07T05:48:51;95158.13;;;13.56;100.00
10706;BME280;5404;42.656;23.336;2023-05-07T05:51:16;95155.47;;;13.56;100.00
10706;BME280;5404;42.656;23.336;2023-05-07T05:53:42;95147.44;;;13.56;100.00
10706;BME280;5404;42.656;23.336;2023-05-07T05:56:09;95134.53;;;13.58;100.00
10706;BME280;5404;42.656;23.336;2023-05-07T05:58:35;95125.81;;;13.53;100.00
10706;BME280;5404;42.656;23.336;2023-05-07T06:01:00;95149.59;;;13.76;100.00
10706;BME280;5404;42.656;23.336;2023-05-07T06:03:27;95144.63;;;13.83;100.00
10706;BME280;5404;42.656;23.336;2023-05-07T06:05:53;95145.78;;;13.91;100.00
10706;BME280;5404;42.656;23.336;2023-05-07T06:08:18;95138.56;;;14.00;100.00
10706;BME280;5404;42.656;23.336;2023-05-07T06:10:44;95142.34;;;13.99;100.00
10706;BME280;5404;42.656;23.336;2023-05-07T06:13:11;95139.34;;;14.00;100.00
10706;BME280;5404;42.656;23.336;2023-05-07T06:15:37;95138.38;;;13.96;100.00
10706;BME280;5404;42.656;23.336;2023-05-07T06:18:03;95123.06;;;13.88;100.00
10706;BME280;5404;42.656;23.336;2023-05-07T06:20:29;95135.28;;;14.03;100.00
10706;BME280;5404;42.656;23.336;2023-05-07T06:22:58;95128.69;;;14.09;100.00
10706;BME280;5404;42.656;23.336;2023-05-07T06:25:24;95124.75;;;14.07;100.00
10706;BME280;5404;42.656;23.336;2023-05-07T06:27:49;95121.13;;;14.11;100.00
10706;BME280;5404;42.656;23.336;2023-05-07T06:30:16;95115.59;;;14.07;100.00
10706;BME280;5404;42.656;23.336;2023-05-07T06:32:43;95125.03;;;14.27;100.00
10706;BME280;5404;42.656;23.336;2023-05-07T06:35:08;95108.19;;;14.44;100.00
10706;BME280;5404;42.656;23.336;2023-05-07T06:37:34;95110.78;;;14.66;100.00
10706;BME280;5404;42.656;23.336;2023-05-07T06:39:59;95118.56;;;14.84;100.00
10706;BME280;5404;42.656;23.336;2023-05-07T06:42:25;95102.31;;;14.98;100.00
10706;BME280;5404;42.656;23.336;2023-05-07T06:44:52;95097.28;;;15.13;100.00
10706;BME280;5404;42.656;23.336;2023-05-07T06:47:19;95092.72;;;15.23;100.00
10706;BME280;5404;42.656;23.336;2023-05-07T06:49:44;95078.66;;;15.26;100.00
10706;BME280;5404;42.656;23.336;2023-05-07T06:52:10;95084.50;;;15.19;100.00
10706;BME280;5404;42.656;23.336;2023-05-07T06:54:37;95081.50;;;15.29;100.00
10706;BME280;5404;42.656;23.336;2023-05-07T06:57:02;95080.41;;;15.39;100.00
10706;BME280;5404;42.656;23.336;2023-05-07T06:59:28;95074.88;;;15.52;100.00
10706;BME280;5404;42.656;23.336;2023-05-07T07:01:53;95069.47;;;15.69;100.00
10706;BME280;5404;42.656;23.336;2023-05-07T07:04:18;95065.19;;;15.77;100.00
10706;BME280;5404;42.656;23.336;2023-05-07T07:06:45;95073.38;;;15.89;100.00
10706;BME280;5404;42.656;23.336;2023-05-07T07:09:10;95075.09;;;15.93;100.00
10706;BME280;5404;42.656;23.336;2023-05-07T07:11:36;95080.59;;;16.05;100.00
10706;BME280;5404;42.656;23.336;2023-05-07T07:14:01;95076.91;;;16.18;100.00
10706;BME280;5404;42.656;23.336;2023-05-07T07:16:27;95072.75;;;16.29;100.00
10706;BME280;5404;42.656;23.336;2023-05-07T07:18:52;95063.84;;;16.46;100.00
10706;BME280;5404;42.656;23.336;2023-05-07T07:21:19;95067.56;;;16.62;100.00
10706;BME280;5404;42.656;23.336;2023-05-07T07:23:46;95056.09;;;16.74;100.00
10706;BME280;5404;42.656;23.336;2023-05-07T07:26:11;95059.97;;;16.85;100.00
10706;BME280;5404;42.656;23.336;2023-05-07T07:28:47;95050.78;;;16.86;100.00
10706;BME280;5404;42.656;23.336;2023-05-07T07:31:13;95056.22;;;16.98;100.00
10706;BME280;5404;42.656;23.336;2023-05-07T07:33:39;95049.28;;;17.17;100.00
10706;BME280;5404;42.656;23.336;2023-05-07T07:36:05;95058.91;;;17.39;100.00
10706;BME280;5404;42.656;23.336;2023-05-07T07:38:31;95056.75;;;17.53;100.00
10706;BME280;5404;42.656;23.336;2023-05-07T07:40:57;95054.31;;;17.60;100.00
10706;BME280;5404;42.656;23.336;2023-05-07T07:43:22;95061.03;;;17.54;100.00
10706;BME280;5404;42.656;23.336;2023-05-07T07:45:47;95047.88;;;17.53;100.00
10706;BME280;5404;42.656;23.336;2023-05-07T07:48:14;95015.28;;;17.45;100.00
10706;BME280;5404;42.656;23.336;2023-05-07T07:50:39;95042.91;;;17.75;100.00
10706;BME280;5404;42.656;23.336;2023-05-07T07:53:05;95061.81;;;17.99;100.00
10706;BME280;5404;42.656;23.336;2023-05-07T07:55:38;95054.78;;;18.07;100.00
10706;BME280;5404;42.656;23.336;2023-05-07T07:58:03;95059.59;;;18.13;100.00
10706;BME280;5404;42.656;23.336;2023-05-07T08:00:30;95061.75;;;18.20;100.00
10706;BME280;5404;42.656;23.336;2023-05-07T08:02:55;95063.47;;;18.36;100.00
10706;BME280;5404;42.656;23.336;2023-05-07T08:05:21;95058.22;;;18.52;100.00
10706;BME280;5404;42.656;23.336;2023-05-07T08:07:47;95053.81;;;18.72;100.00
10706;BME280;5404;42.656;23.336;2023-05-07T08:10:17;95041.88;;;18.85;100.00
10706;BME280;5404;42.656;23.336;2023-05-07T08:12:49;95045.47;;;18.77;100.00
10706;BME280;5404;42.656;23.336;2023-05-07T08:15:15;95047.50;;;18.92;100.00
10706;BME280;5404;42.656;23.336;2023-05-07T08:17:41;95042.50;;;19.06;100.00
10706;BME280;5404;42.656;23.336;2023-05-07T08:20:07;95041.00;;;19.20;100.00
10706;BME280;5404;42.656;23.336;2023-05-07T08:22:34;95039.50;;;19.35;100.00
10706;BME280;5404;42.656;23.336;2023-05-07T08:25:00;95038.59;;;19.43;100.00
10706;BME280;5404;42.656;23.336;2023-05-07T08:27:26;95038.88;;;19.53;100.00
10706;BME280;5404;42.656;23.336;2023-05-07T08:29:52;95043.88;;;19.67;100.00
10706;BME280;5404;42.656;23.336;2023-05-07T08:32:18;95041.66;;;19.85;100.00
10706;BME280;5404;42.656;23.336;2023-05-07T08:34:43;95041.16;;;19.95;100.00
10706;BME280;5404;42.656;23.336;2023-05-07T08:37:08;95034.34;;;20.01;100.00
10706;BME280;5404;42.656;23.336;2023-05-07T08:39:34;95033.69;;;20.19;100.00
10706;BME280;5404;42.656;23.336;2023-05-07T08:42:00;95026.63;;;20.30;100.00
10706;BME280;5404;42.656;23.336;2023-05-07T08:44:28;95024.59;;;20.58;100.00
10706;BME280;5404;42.656;23.336;2023-05-07T08:46:58;95031.22;;;20.61;100.00
10706;BME280;5404;42.656;23.336;2023-05-07T08:49:24;95037.13;;;20.82;100.00
10706;BME280;5404;42.656;23.336;2023-05-07T08:51:50;95022.06;;;21.00;100.00
10706;BME280;5404;42.656;23.336;2023-05-07T08:54:16;95022.16;;;21.23;100.00
10706;BME280;5404;42.656;23.336;2023-05-07T08:56:44;95020.97;;;21.20;100.00
10706;BME280;5404;42.656;23.336;2023-05-07T08:59:10;94999.06;;;21.10;100.00
10706;BME280;5404;42.656;23.336;2023-05-07T09:01:36;95014.25;;;21.33;100.00
10706;BME280;5404;42.656;23.336;2023-05-07T09:04:04;95015.69;;;21.27;100.00
10706;BME280;5404;42.656;23.336;2023-05-07T09:06:30;95008.91;;;21.18;100.00
10706;BME280;5404;42.656;23.336;2023-05-07T09:08:56;95018.47;;;21.12;100.00
10706;BME280;5404;42.656;23.336;2023-05-07T09:11:26;95005.88;;;21.04;100.00
10706;BME280;5404;42.656;23.336;2023-05-07T09:13:54;95011.47;;;21.11;100.00
10706;BME280;5404;42.656;23.336;2023-05-07T09:16:22;95002.81;;;21.24;100.00
10706;BME280;5404;42.656;23.336;2023-05-07T09:18:57;95003.63;;;21.44;100.00
10706;BME280;5404;42.656;23.336;2023-05-07T09:21:23;94998.78;;;21.94;100.00
10706;BME280;5404;42.656;23.336;2023-05-07T09:23:54;95003.22;;;22.51;96.21
10706;BME280;5404;42.656;23.336;2023-05-07T09:26:23;95000.19;;;23.68;86.79
10706;BME280;5404;42.656;23.336;2023-05-07T09:28:50;94983.31;;;24.76;77.33
10706;BME280;5404;42.656;23.336;2023-05-07T09:31:17;94979.13;;;25.82;69.65
10706;BME280;5404;42.656;23.336;2023-05-07T09:33:42;94999.56;;;26.76;58.91
10706;BME280;5404;42.656;23.336;2023-05-07T09:36:10;94990.94;;;26.95;56.35
10706;BME280;5404;42.656;23.336;2023-05-07T09:38:37;94989.38;;;26.37;54.43
10706;BME280;5404;42.656;23.336;2023-05-07T09:41:07;94981.56;;;26.78;54.34
10706;BME280;5404;42.656;23.336;2023-05-07T09:43:34;94984.66;;;27.05;53.62
10706;BME280;5404;42.656;23.336;2023-05-07T09:46:12;94962.75;;;27.29;52.05
10706;BME280;5404;42.656;23.336;2023-05-07T09:48:40;94974.34;;;27.62;51.39
10706;BME280;5404;42.656;23.336;2023-05-07T09:51:25;94973.66;;;27.33;51.35
10706;BME280;5404;42.656;23.336;2023-05-07T09:53:53;94979.22;;;26.80;51.73
10706;BME280;5404;42.656;23.336;2023-05-07T09:56:19;94978.47;;;26.44;53.38
10706;BME280;5404;42.656;23.336;2023-05-07T09:58:46;94978.41;;;26.06;54.30
10706;BME280;5404;42.656;23.336;2023-05-07T10:01:12;94977.66;;;26.05;55.06
10706;BME280;5404;42.656;23.336;2023-05-07T10:03:41;94974.53;;;26.10;46.19
10706;BME280;5404;42.656;23.336;2023-05-07T10:06:12;94969.81;;;26.00;45.14
10706;BME280;5404;42.656;23.336;2023-05-07T10:08:39;94974.28;;;25.33;43.79
10706;BME280;5404;42.656;23.336;2023-05-07T10:11:05;94974.69;;;25.39;44.73
10706;BME280;5404;42.656;23.336;2023-05-07T10:13:32;94975.53;;;25.53;43.63
10706;BME280;5404;42.656;23.336;2023-05-07T10:16:00;94971.63;;;25.47;42.88
10706;BME280;5404;42.656;23.336;2023-05-07T10:18:26;94953.81;;;24.92;45.14
10706;BME280;5404;42.656;23.336;2023-05-07T10:20:57;94964.09;;;24.62;49.60
10706;BME280;5404;42.656;23.336;2023-05-07T10:23:27;94963.09;;;24.30;50.41
10706;BME280;5404;42.656;23.336;2023-05-07T10:25:53;94965.38;;;24.71;49.17
10706;BME280;5404;42.656;23.336;2023-05-07T10:28:24;94960.06;;;24.99;47.04
10706;BME280;5404;42.656;23.336;2023-05-07T10:33:56;94923.41;;;26.07;44.71
10706;BME280;5404;42.656;23.336;2023-05-07T10:36:23;94937.84;;;26.78;41.62
10706;BME280;5404;42.656;23.336;2023-05-07T10:38:49;94936.13;;;27.33;40.04
10706;BME280;5404;42.656;23.336;2023-05-07T10:41:15;94921.66;;;27.33;39.47
10706;BME280;5404;42.656;23.336;2023-05-07T10:43:43;94924.50;;;27.88;39.54
10706;BME280;5404;42.656;23.336;2023-05-07T10:46:14;94931.25;;;27.66;38.52
10706;BME280;5404;42.656;23.336;2023-05-07T10:51:32;94858.88;;;26.98;40.07
10706;BME280;5404;42.656;23.336;2023-05-07T10:56:42;94908.44;;;27.93;38.05
10706;BME280;5404;42.656;23.336;2023-05-07T11:02:02;94920.38;;;28.20;36.65
10706;BME280;5404;42.656;23.336;2023-05-07T11:04:29;94921.69;;;28.02;37.28
10706;BME280;5404;42.656;23.336;2023-05-07T11:15:11;94920.38;;;28.68;37.68
10706;BME280;5404;42.656;23.336;2023-05-07T11:17:58;94920.28;;;29.16;35.75
10706;BME280;5404;42.656;23.336;2023-05-07T11:20:52;94923.63;;;28.93;35.91
10706;BME280;5404;42.656;23.336;2023-05-07T11:26:03;94920.63;;;28.36;35.11
10706;BME280;5404;42.656;23.336;2023-05-07T11:28:30;94909.25;;;27.87;36.52
10706;BME280;5404;42.656;23.336;2023-05-07T11:30:56;94907.84;;;27.58;36.95
10706;BME280;5404;42.656;23.336;2023-05-07T11:33:25;94908.56;;;26.47;39.72
10706;BME280;5404;42.656;23.336;2023-05-07T11:35:55;94905.78;;;25.70;41.52
10706;BME280;5404;42.656;23.336;2023-05-07T11:38:21;94909.09;;;25.10;42.74
10706;BME280;5404;42.656;23.336;2023-05-07T11:40:50;94911.78;;;25.00;45.23
10706;BME280;5404;42.656;23.336;2023-05-07T11:43:17;94899.78;;;25.22;44.41
10706;BME280;5404;42.656;23.336;2023-05-07T11:45:42;94902.22;;;25.38;40.69
10706;BME280;5404;42.656;23.336;2023-05-07T11:48:09;94892.84;;;25.39;41.04
10706;BME280;5404;42.656;23.336;2023-05-07T11:50:35;94896.44;;;25.60;41.37
10706;BME280;5404;42.656;23.336;2023-05-07T11:53:07;94897.16;;;25.40;42.53
10706;BME280;5404;42.656;23.336;2023-05-07T11:55:32;94896.16;;;24.86;43.84
10706;BME280;5404;42.656;23.336;2023-05-07T11:57:58;94905.78;;;24.70;45.05
10706;BME280;5404;42.656;23.336;2023-05-07T12:00:23;94904.56;;;24.64;45.37
10706;BME280;5404;42.656;23.336;2023-05-07T12:02:50;94890.59;;;24.69;44.74
10706;BME280;5404;42.656;23.336;2023-05-07T12:05:16;94863.59;;;24.50;44.77
10706;BME280;5404;42.656;23.336;2023-05-07T12:07:41;94891.31;;;24.62;44.77
10706;BME280;5404;42.656;23.336;2023-05-07T12:10:07;94882.34;;;24.62;45.10
10706;BME280;5404;42.656;23.336;2023-05-07T12:12:46;94875.00;;;24.66;45.25
10706;BME280;5404;42.656;23.336;2023-05-07T12:15:16;94873.19;;;24.94;46.26
10706;BME280;5404;42.656;23.336;2023-05-07T12:17:42;94869.88;;;25.40;43.17
10706;BME280;5404;42.656;23.336;2023-05-07T12:20:08;94868.31;;;25.53;44.39
10706;BME280;5404;42.656;23.336;2023-05-07T12:22:35;94864.84;;;25.70;41.24
10706;BME280;5404;42.656;23.336;2023-05-07T12:25:00;94870.69;;;25.75;40.62
10706;BME280;5404;42.656;23.336;2023-05-07T12:27:27;94858.59;;;25.83;39.55
10706;BME280;5404;42.656;23.336;2023-05-07T12:29:53;94857.44;;;25.77;39.77
10706;BME280;5404;42.656;23.336;2023-05-07T12:32:21;94858.25;;;25.81;39.99
10706;BME280;5404;42.656;23.336;2023-05-07T12:34:49;94845.75;;;25.87;39.39
10706;BME280;5404;42.656;23.336;2023-05-07T12:37:15;94818.06;;;25.71;39.69
10706;BME280;5404;42.656;23.336;2023-05-07T12:40:06;94841.09;;;26.05;38.33
10706;BME280;5404;42.656;23.336;2023-05-07T12:42:37;94837.97;;;26.21;38.04
10706;BME280;5404;42.656;23.336;2023-05-07T12:45:15;94820.78;;;26.31;37.52
10706;BME280;5404;42.656;23.336;2023-05-07T12:47:44;94821.84;;;26.79;37.47
10706;BME280;5404;42.656;23.336;2023-05-07T12:50:11;94819.38;;;26.99;36.58
10706;BME280;5404;42.656;23.336;2023-05-07T12:52:39;94823.66;;;27.07;35.44
10706;BME280;5404;42.656;23.336;2023-05-07T12:55:08;94830.66;;;27.11;33.35
10706;BME280;5404;42.656;23.336;2023-05-07T12:57:47;94805.41;;;26.83;34.04
10706;BME280;5404;42.656;23.336;2023-05-07T13:00:14;94818.69;;;26.88;33.82
10706;BME280;5404;42.656;23.336;2023-05-07T13:02:41;94814.81;;;26.71;33.79
10706;BME280;5404;42.656;23.336;2023-05-07T13:05:09;94806.25;;;26.59;34.50
10706;BME280;5404;42.656;23.336;2023-05-07T13:07:35;94805.81;;;26.85;34.31
10706;BME280;5404;42.656;23.336;2023-05-07T13:10:03;94810.31;;;27.16;33.88
10706;BME280;5404;42.656;23.336;2023-05-07T13:12:28;94802.13;;;27.12;33.43